North Augusta, SC (29860)

6:05 PM EDT on September 01, 2015 (GMT -0400)
Merriwether | | Change Station
CLOSE
Current Station
Personal Weather Station
Location: North Augusta, SC
Elevation: 499 ft
Nearby Weather Stations

Elev 499 ft 33.60 °N, 81.98 °W | Updated 11 seconds ago

Partly Cloudy
Partly Cloudy
86.2 °F
Feels Like 84 °F
N
0.0
Wind Variable Wind from North
Gusts 0.0 mph

Today
High -- | Low -- °F
--% Chance of Precip.
Yesterday
High -- | Low -- °F
Precip. -- in
7:01 AM 7:53 PM
Waning Gibbous, 86% visible
Pressure 30.05 in
Visibility 10.0 miles
Clouds Few 5500 ft
Heat Index 84 °F
Dew Point 54 °F
Humidity 33%
Rainfall 0.00 in
Snow Depth Not available.
UV 2 out of 12
Pollen 8.10 out of 12
Air Quality Not available.
Flu Activity Not available.
METAR KDNL 012153Z AUTO 16003KT 10SM FEW055 31/19 A3007 RMK AO2 SLP176 T03110194
Pressure 30.05 in
Visibility 10.0 miles
Clouds Few 5500 ft
Heat Index 84 °F
Dew Point 54 °F
Humidity 33%
Rainfall 0.00 in
Snow Depth Not available.
UV 2 out of 12
Pollen 8.10 out of 12
Air Quality Not available.
Flu Activity Not available.
METAR KDNL 012153Z AUTO 16003KT 10SM FEW055 31/19 A3007 RMK AO2 SLP176 T03110194

10-Day Weather Forecast

×

Almanac

Astronomy

Sep. 01, 2015 Rise Set
Actual Time
Civil Twilight
Nautical Twilight
Astronomical Twilight
Moon
Length of Visible Light
Length of Day
Tomorrow will be .
, % of the Moon is Illuminated

Today's Extremes

State Highs State Lows

Community

WunderPhotos

Upload Photos

1,851,629 photos uploaded!

WunderBlogs® & News

Nearby

Air Quality

  Air Quality AQ Index Pollutant
Not available.

Snow Depth

Station Depth Elevation

Earthquake Activity

City Distance Mag. Time & Date
Minimum magnitude displayed is 2.5.

Coastal Water Temperatures

Place Temperature

Stations

Nearby Weather Stations

Station Location Temp. Windchill Dew Point Humidity Wind Precip. Elev Updated Type